Tuesday, February 20, 2018, 4:37 AM EST

KRIC, Richmond International Airport

Location: Sandston, VA, United States Lat: 37.517
Local Time: 4:37 AM EST ( 9:37 GMT) Lon: -77.317
Time Zone: US/Eastern Elev: 167 ft

Show me the last for .
Show Decoded

2018-02-20 04:12 METAR KRIC 200912Z 18006KT 1 3/4SM BR OVC004 12/12 A3039 RMK AO2 T01170117 =
2018-02-20 04:01 METAR KRIC 200901Z 20005KT 2SM BR OVC004 12/12 A3038 =
2018-02-20 03:54 METAR KRIC 200854Z 19005KT 2SM BR OVC005 12/11 A3038 RMK AO2 SLP292 T01170111
                 56003 =
2018-02-20 03:51 METAR KRIC 200851Z 19005KT 2 1/2SM BR OVC005 12/11 A3038 RMK AO2 =
2018-02-20 03:06 METAR KRIC 200806Z 22006KT 7SM FEW004 OVC009 12/11 A3037 RMK AO2 T01170111 =
2018-02-20 02:54 METAR KRIC 200754Z 21007KT 5SM BR BKN004 OVC009 12/11 A3038 RMK AO2 SLP292
                 T01170111 =
2018-02-20 02:20 METAR KRIC 200720Z 20007KT 4SM BR OVC004 11/11 A3039 RMK AO2 T01110111 =
2018-02-20 01:54 METAR KRIC 200654Z 19007KT 5SM BR BKN005 OVC012 11/11 A3039 RMK AO2 SLP296
                 T01110111 =
2018-02-20 00:54 METAR KRIC 200554Z 19007KT 6SM BR BKN005 OVC011 11/11 A3039 RMK AO2 SLP297
                 T01060106 10106 20094 51000 =
2018-02-19 23:54 METAR KRIC 200454Z 18004KT 6SM BR OVC007 11/10 A3039 RMK AO2 SLP298 T01060100
                 401060022 =
2018-02-19 22:54 METAR KRIC 200354Z 17004KT 4SM BR OVC008 10/09 A3040 RMK AO2 CIG 004V010 SLP299
                 T01000094 =
2018-02-19 22:32 METAR KRIC 200332Z 17003KT 5SM BR OVC009 10/09 A3040 RMK AO2 CIG 006V013
                 T01000094 =
2018-02-19 21:54 METAR KRIC 200254Z COR 17003KT 6SM BR SCT005 BKN014 OVC034 09/09 A3039 RMK AO2
                 SLP297 T00940094 53002 =
2018-02-19 20:54 METAR KRIC 200154Z 00000KT 7SM OVC005 10/09 A3040 RMK AO2 SLP298 T01000094 =
2018-02-19 19:54 METAR KRIC 200054Z 18004KT 7SM BKN005 OVC016 10/09 A3038 RMK AO2 SLP293
                 T01000094 =
2018-02-19 18:54 METAR KRIC 192354Z 18005KT 6SM BR OVC005 09/09 A3039 RMK AO2 SLP295 60000
                 T00940089 10100 20078 53004 =
2018-02-19 17:54 METAR KRIC 192254Z 17005KT 5SM BR OVC005 09/09 A3038 RMK AO2 SLP293 T00940089 =
2018-02-19 16:54 METAR KRIC 192154Z 18007KT 6SM BR OVC005 09/09 A3037 RMK AO2 SLP289 T00940089 =
2018-02-19 15:54 METAR KRIC 192054Z 18006KT 6SM BR OVC005 10/09 A3037 RMK AO2 SLP291 60000
                 T01000089 56015 =
2018-02-19 15:34 METAR KRIC 192034Z 17006KT 4SM BR BKN005 OVC011 10/09 A3037 RMK AO2 T01000094 =
2018-02-19 14:54 METAR KRIC 191954Z 14006KT 2SM BR OVC004 09/09 A3038 RMK AO2 DZE21 SLP294 P0000
                 T00890089 =
2018-02-19 14:52 METAR KRIC 191952Z 14006KT 2SM BR OVC004 09/09 A3038 RMK AO2 DZE21 CIG 003V007
                 P0000 =
2018-02-19 14:23 METAR KRIC 191923Z 17003KT 1 1/2SM BR OVC005 08/08 A3039 RMK AO2 DZE21 P0000
                 T00830078 =
2018-02-19 13:54 METAR KRIC 191854Z 00000KT 1 1/2SM -DZ BR OVC004 08/08 A3040 RMK AO2 SLP300
                 P0000 T00830078 =
2018-02-19 12:54 METAR KRIC 191754Z 21005KT 1 1/2SM -DZ BR OVC004 08/07 A3042 RMK AO2 RAE16DZB35
                 SLP306 P0000 60012 T00780072 10078 20039 58019 =
2018-02-19 11:54 METAR KRIC 191654Z 20003KT 1 1/2SM -RA BR OVC004 07/06 A3045 RMK AO2 SLP317
                 P0002 T00670061 =
2018-02-19 11:18 METAR KRIC 191618Z 21003KT 1 1/2SM R34/6000VP6000FT -RA BR OVC004 06/06 A3046
                 RMK AO2 TWR VIS 2 P0001 T00610056 =
2018-02-19 11:10 METAR KRIC 191610Z 20003KT 2SM R34/6000VP6000FT -RA BR OVC004 06/06 A3046 RMK
                 AO2 P0000 T00610061 =
2018-02-19 10:54 METAR KRIC 191554Z 00000KT 1 1/2SM R34/4500VP6000FT -RA BR OVC004 06/06 A3047
                 RMK AO2 TWR VIS 2 RAB37 SLP324 P0000 T00610056 =
2018-02-19 10:50 METAR KRIC 191550Z 19003KT 1 3/4SM R34/4500VP6000FT -RA BR OVC005 06/06 A3047
                 RMK AO2 TWR VIS 2 RAB37 P0000 =
2018-02-19 09:54 METAR KRIC 191454Z 14004KT 5SM BR BKN006 OVC010 06/05 A3048 RMK AO2 DZE49 CIG
                 004V008 SLP326 P0000 60010 T00560050 58007 =
2018-02-19 09:24 METAR KRIC 191424Z 16005KT 3SM -DZ BR OVC009 05/04 A3048 RMK AO2 CIG 004V011
                 P0000 T00500044 =
2018-02-19 08:54 METAR KRIC 191354Z 13003KT 2SM -DZ BR FEW003 OVC012 04/04 A3048 RMK AO2 SFC VIS
                 2 1/2 RAE51DZB51 SLP329 P0003 T00440039 =
2018-02-19 08:43 METAR KRIC 191343Z 00000KT 2SM -RA BR FEW003 OVC013 04/04 A3049 RMK AO2 SFC VIS
                 5 P0003 T00440039 =
2018-02-19 08:12 METAR KRIC 191312Z 00000KT 2SM -RA BR BKN015 BKN028 OVC075 04/04 A3050 RMK AO2
                 SFC VIS 3 P0002 T00390039 =
2018-02-19 08:01 METAR KRIC 191301Z 11004KT 2SM RA BR SCT017 BKN030 OVC075 04/03 A3050 =
2018-02-19 07:57 METAR KRIC 191257Z 11005KT 1 3/4SM RA BR BKN017 OVC075 04/03 A3049 =
2018-02-19 07:54 METAR KRIC 191254Z 11004KT 2SM RA BR BKN017 OVC075 04/03 A3049 RMK AO2 SLP332
                 P0007 T00390033 =
2018-02-19 07:30 METAR KRIC 191230Z 36005KT 2SM -RA BR BKN020 OVC043 04/03 A3051 RMK AO2 SFC VIS
                 3 P0003 T00390033 =
2018-02-19 06:54 METAR KRIC 191154Z 33003KT 6SM -RA BR BKN043 OVC060 04/03 A3050 RMK AO2 SLP334
                 P0006 60008 70008 T00390028 10039 20022 53014 =
2018-02-19 05:54 METAR KRIC 191054Z 02003KT 6SM RA BR BKN055 OVC100 03/02 A3049 RMK AO2 RAB18
                 SLP329 P0002 T00330022 =
2018-02-19 04:54 METAR KRIC 190954Z 00000KT 10SM FEW060 BKN110 OVC170 03/02 A3047 RMK AO2 SLP323
                 T00330017 =

Support USWX by starting your Amazon purchase here.